Terminal Aerodrome Forecast
Issued by NWS Louisville, KY

Home | Current Version | Previous Version | Text Only | Print | Product List | Glossary On
Versions: 1 2 3 4 5 6 7 8 9 10 11 12 13 14 15 16 17 18 19
607
FTUS43 KLMK 212341
TAFBWG
TAF
KBWG 212341Z 2200/2224 16005KT P6SM -SHRA OVC035
     FM220300 16004KT 5SM -SHRA BR OVC025
     FM220800 VRB03KT 4SM -DZ BR BKN015
     FM221300 15004KT 5SM BR BKN015
     FM221700 18005KT P6SM BKN025=

USA.gov is the U.S. government's official web portal to all federal, state and local government web resources and services.